Time;durP1;ratioP1;P1;durP2;ratioP2;P2;SDS_P1;SDS_P2;PMS_P1;PMS_P2;Temp;Humidity;BMP_temperature;BMP_pressure;BME280_temperature;BME280_humidity;BME280_pressure;Samples;Min_cycle;Max_cycle;Signal;HPM_P1;HPM_P2
2023/03/09 00:02:13;;;;;;;0.77;0.60;;;;;;;10.81;100.00;94798.00;5075552;28;20205;-55
2023/03/09 00:04:40;;;;;;;1.80;0.67;;;;;;;10.72;100.00;94802.63;5081942;28;20206;-55
2023/03/09 00:07:07;;;;;;;1.13;0.40;;;;;;;10.69;100.00;94808.28;5080775;28;20199;-55
2023/03/09 00:09:33;;;;;;;0.60;0.60;;;;;;;10.67;100.00;94810.28;5076767;28;20225;-56
2023/03/09 00:12:01;;;;;;;1.10;1.10;;;;;;;10.66;100.00;94819.25;5077279;28;20202;-55
2023/03/09 00:14:27;;;;;;;0.90;0.90;;;;;;;10.66;100.00;94816.59;5077187;28;20198;-55
2023/03/09 00:16:54;;;;;;;0.60;0.60;;;;;;;10.65;100.00;94799.09;5077159;28;20194;-55
2023/03/09 00:19:26;;;;;;;0.50;0.50;;;;;;;10.79;100.00;94806.16;5083830;28;20194;-55
2023/03/09 00:21:53;;;;;;;0.30;0.30;;;;;;;10.73;100.00;94804.28;5079000;28;20219;-55
2023/03/09 00:24:24;;;;;;;1.33;0.50;;;;;;;10.69;100.00;94813.56;5077922;28;20199;-55
2023/03/09 00:26:52;;;;;;;0.40;0.40;;;;;;;10.67;100.00;94818.22;5078089;28;20210;-55
2023/03/09 00:29:20;;;;;;;0.30;0.30;;;;;;;10.66;100.00;94807.84;5077935;28;20230;-55
2023/03/09 00:31:46;;;;;;;0.40;0.40;;;;;;;10.68;100.00;94834.91;5077417;28;20263;-55
2023/03/09 00:34:15;;;;;;;0.50;0.50;;;;;;;10.62;100.00;94828.56;5077600;28;20210;-55
2023/03/09 00:36:42;;;;;;;0.53;0.33;;;;;;;10.65;100.00;94867.00;5078229;28;20719;-55
2023/03/09 00:39:10;;;;;;;1.40;0.60;;;;;;;10.67;100.00;94857.88;5077264;28;20206;-55
2023/03/09 00:41:37;;;;;;;0.43;0.43;;;;;;;10.56;100.00;94839.84;5077325;28;20198;-56
2023/03/09 00:44:04;;;;;;;0.47;0.47;;;;;;;10.55;100.00;94842.69;5076920;28;20217;-54
2023/03/09 00:46:33;;;;;;;0.53;0.53;;;;;;;10.42;100.00;94817.75;5076894;28;20198;-55
2023/03/09 00:49:00;;;;;;;0.83;0.47;;;;;;;10.45;100.00;94827.16;5076357;28;20690;-55
2023/03/09 00:51:26;;;;;;;0.53;0.53;;;;;;;10.44;100.00;94825.50;5076753;28;20531;-54
2023/03/09 00:53:53;;;;;;;1.50;0.47;;;;;;;10.44;100.00;94818.41;5095736;28;20207;-55
2023/03/09 00:56:21;;;;;;;0.50;0.40;;;;;;;10.43;100.00;94811.47;5080303;28;20567;-55
2023/03/09 00:58:48;;;;;;;1.33;0.60;;;;;;;10.51;100.00;94810.53;5077149;28;20214;-55
2023/03/09 01:01:16;;;;;;;0.60;0.60;;;;;;;10.47;100.00;94809.28;5076746;28;20197;-55
2023/03/09 01:03:44;;;;;;;0.53;0.53;;;;;;;10.46;100.00;94813.72;5078119;28;20211;-55
2023/03/09 01:06:11;;;;;;;1.50;0.50;;;;;;;10.41;100.00;94810.03;5076207;28;20702;-55
2023/03/09 01:08:38;;;;;;;0.67;0.57;;;;;;;10.53;100.00;94824.38;5075630;28;20213;-55
2023/03/09 01:11:06;;;;;;;0.60;0.60;;;;;;;10.60;100.00;94835.00;5076362;28;20222;-55
2023/03/09 01:13:33;;;;;;;1.03;0.43;;;;;;;10.54;100.00;94841.03;5072543;28;20236;-55
2023/03/09 01:15:59;;;;;;;0.50;0.50;;;;;;;10.52;100.00;94832.50;5073267;28;20207;-56
2023/03/09 01:18:28;;;;;;;0.60;0.60;;;;;;;10.56;100.00;94824.00;5073692;28;20211;-55
2023/03/09 01:20:56;;;;;;;0.70;0.70;;;;;;;10.60;100.00;94798.81;5074552;28;20205;-55
2023/03/09 01:23:22;;;;;;;1.43;0.73;;;;;;;10.62;100.00;94796.00;5073729;28;20237;-55
2023/03/09 01:25:49;;;;;;;0.40;0.40;;;;;;;10.61;100.00;94789.91;5076216;28;20213;-56
2023/03/09 01:28:15;;;;;;;0.87;0.43;;;;;;;10.64;100.00;94805.38;5076929;28;20245;-55
2023/03/09 01:30:43;;;;;;;0.60;0.60;;;;;;;10.61;100.00;94797.84;5080927;28;20761;-55
2023/03/09 01:33:10;;;;;;;0.60;0.60;;;;;;;10.72;100.00;94791.22;5076520;28;20634;-55
2023/03/09 01:35:38;;;;;;;0.70;0.70;;;;;;;10.74;100.00;94803.25;5073613;28;20534;-55
2023/03/09 01:38:06;;;;;;;0.50;0.50;;;;;;;10.84;100.00;94803.75;5073211;28;20198;-56
2023/03/09 01:40:33;;;;;;;0.50;0.50;;;;;;;10.87;100.00;94784.88;5072621;28;20198;-55
2023/03/09 01:43:01;;;;;;;1.63;0.50;;;;;;;10.93;100.00;94788.56;5072817;28;20226;-55
2023/03/09 01:46:06;;;;;;;0.60;0.60;;;;;;;11.04;100.00;94774.00;5071403;28;20662;-55
2023/03/09 01:48:32;;;;;;;0.70;0.70;;;;;;;11.17;100.00;94787.34;5072341;28;20238;-55
2023/03/09 01:50:59;;;;;;;0.60;0.60;;;;;;;11.31;100.00;94781.97;5071301;28;20276;-55
2023/03/09 01:53:27;;;;;;;0.50;0.50;;;;;;;11.39;100.00;94784.47;5071756;28;20550;-55
2023/03/09 01:55:55;;;;;;;0.97;0.53;;;;;;;11.44;100.00;94797.13;5072269;28;20198;-54
2023/03/09 01:58:24;;;;;;;0.60;0.60;;;;;;;11.43;99.93;94785.72;5072844;28;20202;-54
2023/03/09 02:00:53;;;;;;;0.80;0.53;;;;;;;11.57;97.14;94805.16;5072875;28;20517;-55
2023/03/09 02:03:23;;;;;;;0.93;0.57;;;;;;;11.68;93.08;94809.91;5071948;28;20245;-55
2023/03/09 02:05:53;;;;;;;0.50;0.40;;;;;;;11.86;92.11;94839.38;5070704;28;20210;-55
2023/03/09 02:08:20;;;;;;;1.43;0.67;;;;;;;11.94;91.70;94841.03;5071144;28;20237;-55
2023/03/09 02:10:54;;;;;;;0.83;0.60;;;;;;;12.04;92.71;94872.50;5072054;28;20267;-55
2023/03/09 02:13:23;;;;;;;0.60;0.60;;;;;;;11.95;97.08;94869.97;5072035;28;20202;-55
2023/03/09 02:15:49;;;;;;;2.07;0.90;;;;;;;11.90;97.41;94845.91;5070782;28;20198;-55
2023/03/09 02:18:16;;;;;;;0.90;0.70;;;;;;;11.68;100.00;94867.31;5072208;28;20566;-55
2023/03/09 02:20:50;;;;;;;0.50;0.50;;;;;;;11.59;99.95;94848.13;5071889;28;20205;-55
2023/03/09 02:23:21;;;;;;;1.60;0.90;;;;;;;11.53;100.00;94859.47;5072377;28;20214;-55
2023/03/09 02:25:51;;;;;;;2.10;0.80;;;;;;;11.43;100.00;94870.41;5071756;28;20229;-55
2023/03/09 02:28:19;;;;;;;0.70;0.70;;;;;;;11.35;100.00;94888.25;5072546;28;20207;-55
2023/03/09 02:30:47;;;;;;;1.17;0.90;;;;;;;11.12;100.00;94884.97;5071709;28;20226;-55
2023/03/09 02:33:25;;;;;;;0.60;0.60;;;;;;;11.03;100.00;94880.81;5072041;28;20206;-55
2023/03/09 02:35:52;;;;;;;1.60;0.67;;;;;;;10.93;100.00;94874.03;5071068;28;20305;-55
2023/03/09 02:38:19;;;;;;;0.60;0.60;;;;;;;10.86;100.00;94883.72;5071751;28;20205;-55
2023/03/09 02:40:45;;;;;;;2.47;0.83;;;;;;;10.70;100.00;94869.91;5071089;28;20546;-54
2023/03/09 02:43:12;;;;;;;1.83;0.97;;;;;;;10.54;100.00;94860.38;5070933;28;20213;-55
2023/03/09 02:45:40;;;;;;;0.80;0.80;;;;;;;10.60;100.00;94867.53;5072059;28;20214;-55
2023/03/09 02:48:06;;;;;;;0.57;0.57;;;;;;;10.57;100.00;94849.44;5071182;28;20209;-55
2023/03/09 02:50:33;;;;;;;1.70;1.00;;;;;;;10.55;100.00;94842.69;5071711;28;20663;-55
2023/03/09 02:53:01;;;;;;;1.23;0.90;;;;;;;10.47;100.00;94827.75;5070340;28;20207;-55
2023/03/09 02:55:29;;;;;;;1.13;0.90;;;;;;;10.51;100.00;94839.59;5072257;28;20287;-53
2023/03/09 02:57:56;;;;;;;0.93;0.77;;;;;;;10.67;100.00;94831.44;5071860;28;20203;-54
2023/03/09 03:00:23;;;;;;;1.47;1.00;;;;;;;10.62;100.00;94823.25;5072298;28;20213;-55
2023/03/09 03:02:51;;;;;;;1.10;0.80;;;;;;;10.59;100.00;94817.53;5070095;28;20653;-54
2023/03/09 03:05:19;;;;;;;0.70;0.70;;;;;;;10.51;100.00;94807.91;5071461;28;20202;-55
2023/03/09 03:07:45;;;;;;;1.20;0.70;;;;;;;10.51;100.00;94826.38;5070380;28;20206;-54
2023/03/09 03:10:12;;;;;;;0.97;0.83;;;;;;;10.53;100.00;94829.66;5071056;28;20293;-54
2023/03/09 03:12:39;;;;;;;0.80;0.80;;;;;;;10.56;100.00;94829.28;5070442;28;20206;-55
2023/03/09 03:15:07;;;;;;;0.97;0.90;;;;;;;10.58;100.00;94818.53;5070038;28;20222;-55
2023/03/09 03:17:33;;;;;;;1.07;0.80;;;;;;;10.55;100.00;94829.47;5070363;28;20646;-55
2023/03/09 03:20:02;;;;;;;1.90;1.00;;;;;;;10.55;100.00;94835.59;5071143;28;20209;-55
2023/03/09 03:22:29;;;;;;;0.87;0.87;;;;;;;10.56;100.00;94837.19;5070796;28;20263;-55
2023/03/09 03:24:55;;;;;;;0.70;0.70;;;;;;;10.58;100.00;94837.84;5070742;28;20205;-55
2023/03/09 03:27:23;;;;;;;1.50;1.00;;;;;;;10.57;100.00;94854.72;5070633;28;20639;-55
2023/03/09 03:29:52;;;;;;;1.40;1.00;;;;;;;10.59;100.00;94847.44;5070788;28;20203;-55
2023/03/09 03:32:18;;;;;;;0.80;0.57;;;;;;;10.53;100.00;94840.22;5070653;28;20232;-55
2023/03/09 03:34:44;;;;;;;1.40;0.93;;;;;;;10.61;100.00;94852.50;5070262;28;20210;-54
2023/03/09 03:37:13;;;;;;;0.87;0.87;;;;;;;10.67;100.00;94852.56;5070626;28;20214;-55
2023/03/09 03:39:40;;;;;;;2.23;0.80;;;;;;;10.74;100.00;94850.81;5070234;28;20213;-55
2023/03/09 03:42:07;;;;;;;1.90;0.80;;;;;;;10.73;100.00;94846.56;5071031;28;20206;-55
2023/03/09 03:44:34;;;;;;;1.27;0.60;;;;;;;10.94;100.00;94830.72;5070154;28;20210;-55
2023/03/09 03:47:01;;;;;;;0.67;0.67;;;;;;;10.96;100.00;94835.78;5071089;28;20210;-55
2023/03/09 03:49:28;;;;;;;0.97;0.87;;;;;;;11.07;100.00;94851.16;5071015;28;20230;-55
2023/03/09 03:51:54;;;;;;;1.60;0.80;;;;;;;11.14;100.00;94849.38;5071223;28;20237;-55
2023/03/09 03:54:23;;;;;;;1.97;0.80;;;;;;;11.16;100.00;94846.56;5072315;28;20318;-55
2023/03/09 03:56:50;;;;;;;1.17;0.80;;;;;;;11.30;100.00;94858.91;5070917;28;20217;-55
2023/03/09 03:59:16;;;;;;;1.40;0.80;;;;;;;11.33;100.00;94877.84;5070240;28;20225;-55
2023/03/09 04:01:43;;;;;;;1.57;0.87;;;;;;;11.22;100.00;94864.31;5069638;28;20649;-55
2023/03/09 04:04:09;;;;;;;1.83;0.80;;;;;;;11.30;100.00;94878.22;5069904;28;20778;-55
2023/03/09 04:06:35;;;;;;;1.10;0.80;;;;;;;11.26;100.00;94878.81;5070109;28;20203;-55
2023/03/09 04:09:04;;;;;;;1.27;0.97;;;;;;;11.29;100.00;94881.88;5069976;28;20209;-55
2023/03/09 04:11:32;;;;;;;1.07;1.00;;;;;;;11.33;100.00;94895.56;5069934;28;20262;-55
2023/03/09 04:13:59;;;;;;;1.30;1.20;;;;;;;11.22;100.00;94906.66;5069410;28;20195;-55
2023/03/09 04:16:25;;;;;;;1.77;1.00;;;;;;;11.22;100.00;94914.59;5070528;28;20226;-55
2023/03/09 04:18:51;;;;;;;2.70;1.10;;;;;;;11.12;100.00;94919.38;5070409;28;20218;-55
2023/03/09 04:21:18;;;;;;;1.17;0.80;;;;;;;11.07;100.00;94941.09;5069535;28;20209;-55
2023/03/09 04:23:45;;;;;;;3.37;1.13;;;;;;;11.07;100.00;94953.50;5070613;28;20206;-55
2023/03/09 04:26:11;;;;;;;5.17;1.70;;;;;;;11.04;100.00;94969.75;5069475;28;20206;-56
2023/03/09 04:28:39;;;;;;;1.63;1.10;;;;;;;10.95;100.00;94977.78;5070094;28;20529;-56
2023/03/09 04:31:06;;;;;;;2.47;1.37;;;;;;;10.93;100.00;94979.78;5069796;28;20549;-55
2023/03/09 04:33:32;;;;;;;2.30;1.20;;;;;;;10.81;100.00;94986.56;5069699;28;20207;-55
2023/03/09 04:35:59;;;;;;;1.63;1.30;;;;;;;10.74;100.00;94998.03;5069169;28;20209;-55
2023/03/09 04:38:25;;;;;;;2.83;1.33;;;;;;;10.72;100.00;95019.41;5069777;28;20203;-55
2023/03/09 04:40:51;;;;;;;1.60;1.43;;;;;;;10.62;100.00;95028.59;5069424;28;20571;-55
2023/03/09 04:43:18;;;;;;;1.33;1.23;;;;;;;10.43;100.00;95020.22;5069484;28;20206;-55
2023/03/09 04:45:46;;;;;;;1.50;1.40;;;;;;;10.41;100.00;95031.97;5069197;28;20252;-54
2023/03/09 04:48:13;;;;;;;2.27;1.17;;;;;;;10.38;100.00;95058.75;5071352;28;20215;-55
2023/03/09 04:50:39;;;;;;;2.23;1.30;;;;;;;10.24;100.00;95062.16;5072271;28;20278;-55
2023/03/09 04:53:06;;;;;;;1.70;1.20;;;;;;;10.22;100.00;95072.94;5072946;28;20631;-55
2023/03/09 04:55:33;;;;;;;1.67;1.23;;;;;;;10.08;100.00;95078.16;5073091;28;20210;-55
2023/03/09 04:57:59;;;;;;;3.23;1.20;;;;;;;10.09;100.00;95085.91;5073170;28;20199;-55
2023/03/09 05:00:26;;;;;;;3.17;1.50;;;;;;;10.06;100.00;95080.16;5072615;28;20634;-55
2023/03/09 05:02:54;;;;;;;1.47;1.37;;;;;;;10.07;100.00;95079.13;5073729;28;20244;-55
2023/03/09 05:05:20;;;;;;;2.10;1.30;;;;;;;9.85;100.00;95094.00;5073075;28;20546;-55
2023/03/09 05:07:47;;;;;;;1.63;1.40;;;;;;;9.98;100.00;95108.28;5073163;28;20202;-55
2023/03/09 05:10:14;;;;;;;1.57;1.47;;;;;;;9.96;100.00;95134.00;5072993;28;20579;-55
2023/03/09 05:12:40;;;;;;;2.23;1.33;;;;;;;9.92;100.00;95122.16;5072989;28;20230;-55
2023/03/09 05:15:08;;;;;;;1.33;1.00;;;;;;;9.77;100.00;95118.66;5073305;28;20213;-55
2023/03/09 05:17:35;;;;;;;1.33;0.90;;;;;;;9.83;100.00;95143.50;5073093;28;20214;-55
2023/03/09 05:20:08;;;;;;;2.77;0.87;;;;;;;9.81;100.00;95114.63;5072688;28;20296;-54
2023/03/09 05:22:37;;;;;;;0.97;0.40;;;;;;;9.76;100.00;95142.56;5072527;28;20230;-55
2023/03/09 05:25:05;;;;;;;1.17;0.43;;;;;;;9.68;100.00;95139.97;5071705;28;20290;-54
2023/03/09 05:27:31;;;;;;;0.83;0.33;;;;;;;9.68;100.00;95135.53;5073278;28;20202;-55
2023/03/09 05:29:58;;;;;;;0.40;0.40;;;;;;;9.61;100.00;95155.69;5072966;28;20230;-54
2023/03/09 05:32:24;;;;;;;0.50;0.33;;;;;;;9.59;100.00;95149.78;5072816;28;20230;-55
2023/03/09 05:34:51;;;;;;;0.70;0.40;;;;;;;9.53;100.00;95147.81;5072046;28;20305;-55
2023/03/09 05:37:19;;;;;;;0.30;0.30;;;;;;;9.46;100.00;95152.94;5072328;28;20217;-55
2023/03/09 05:39:45;;;;;;;0.53;0.37;;;;;;;9.54;100.00;95159.19;5073010;28;20583;-54
2023/03/09 05:42:12;;;;;;;0.60;0.40;;;;;;;9.57;100.00;95178.13;5073360;28;20200;-54
2023/03/09 05:44:38;;;;;;;0.80;0.33;;;;;;;9.52;100.00;95183.13;5070071;28;20211;-55
2023/03/09 05:47:05;;;;;;;0.77;0.40;;;;;;;9.58;100.00;95192.16;5071891;28;20242;-56
2023/03/09 05:49:32;;;;;;;1.03;0.47;;;;;;;9.59;100.00;95209.63;5071768;28;20234;-55
2023/03/09 05:51:58;;;;;;;0.50;0.40;;;;;;;9.63;100.00;95219.69;5072375;28;20234;-55
2023/03/09 05:54:27;;;;;;;0.30;0.30;;;;;;;9.56;100.00;95223.19;5072800;28;20203;-55
2023/03/09 05:56:54;;;;;;;0.47;0.30;;;;;;;9.59;100.00;95238.66;5073640;28;20203;-56
2023/03/09 05:59:20;;;;;;;1.90;0.40;;;;;;;9.60;100.00;95242.97;5073962;28;20218;-55
2023/03/09 06:01:48;;;;;;;0.63;0.47;;;;;;;9.54;100.00;95248.91;5074010;28;20284;-55
2023/03/09 06:04:15;;;;;;;1.37;0.47;;;;;;;9.55;100.00;95259.28;5073459;28;20205;-55
2023/03/09 06:06:41;;;;;;;0.77;0.20;;;;;;;9.59;100.00;95272.97;5072582;28;20202;-55
2023/03/09 06:09:08;;;;;;;1.20;0.60;;;;;;;9.56;100.00;95275.97;5071621;28;20202;-54
2023/03/09 06:11:36;;;;;;;0.87;0.40;;;;;;;9.58;100.00;95285.34;5071796;28;20222;-55
2023/03/09 06:14:02;;;;;;;0.87;0.30;;;;;;;9.54;100.00;95281.38;5072941;28;20205;-55
2023/03/09 06:16:29;;;;;;;0.63;0.37;;;;;;;9.47;100.00;95283.06;5071720;28;20210;-54
2023/03/09 06:18:55;;;;;;;0.57;0.33;;;;;;;9.55;100.00;95298.88;5073423;28;20876;-55
2023/03/09 06:21:22;;;;;;;0.70;0.50;;;;;;;9.59;100.00;95302.84;5072988;28;20285;-54
2023/03/09 06:23:48;;;;;;;0.83;0.80;;;;;;;9.62;100.00;95299.84;5073482;28;20203;-54
2023/03/09 06:26:15;;;;;;;1.67;0.70;;;;;;;9.69;100.00;95305.25;5073132;28;21146;-55
2023/03/09 06:28:42;;;;;;;1.23;0.47;;;;;;;9.77;100.00;95306.06;5072519;28;20233;-54
2023/03/09 06:31:11;;;;;;;0.70;0.30;;;;;;;9.78;100.00;95317.44;5072311;28;20249;-54
2023/03/09 06:33:38;;;;;;;0.50;0.30;;;;;;;9.70;100.00;95328.88;5071441;28;20206;-55
2023/03/09 06:36:06;;;;;;;0.63;0.40;;;;;;;9.67;100.00;95329.19;5071393;28;20202;-55
2023/03/09 06:38:32;;;;;;;0.40;0.20;;;;;;;9.66;100.00;95335.47;5070376;28;20221;-56
2023/03/09 06:40:59;;;;;;;0.50;0.50;;;;;;;9.66;100.00;95351.31;5070957;28;20211;-56
2023/03/09 06:43:25;;;;;;;0.10;0.10;;;;;;;9.57;100.00;95340.91;5071278;28;20198;-55
2023/03/09 06:45:53;;;;;;;0.20;0.20;;;;;;;9.63;100.00;95348.19;5070063;28;20202;-55
2023/03/09 06:48:20;;;;;;;0.80;0.73;;;;;;;9.65;100.00;95370.75;5071887;28;20226;-55
2023/03/09 06:50:48;;;;;;;0.90;0.90;;;;;;;9.69;100.00;95368.63;5071186;28;20530;-54
2023/03/09 06:53:14;;;;;;;0.10;0.10;;;;;;;9.58;100.00;95361.88;5071616;28;20226;-54
2023/03/09 06:55:41;;;;;;;0.20;0.20;;;;;;;9.66;100.00;95376.88;5071076;28;20211;-55
2023/03/09 06:58:07;;;;;;;0.43;0.20;;;;;;;9.66;100.00;95384.78;5072090;28;20214;-55
2023/03/09 07:00:37;;;;;;;0.20;0.20;;;;;;;9.63;100.00;95379.84;5070346;28;20211;-54
2023/03/09 07:03:05;;;;;;;0.40;0.40;;;;;;;9.61;100.00;95393.19;5071002;28;20207;-55
2023/03/09 07:05:35;;;;;;;0.40;0.20;;;;;;;9.58;100.00;95396.19;5070989;28;20224;-54
2023/03/09 07:08:01;;;;;;;0.40;0.20;;;;;;;9.58;100.00;95398.81;5080198;28;20194;-54
2023/03/09 07:10:28;;;;;;;0.30;0.30;;;;;;;9.65;100.00;95409.53;5072329;28;20210;-55
2023/03/09 07:12:55;;;;;;;2.17;0.40;;;;;;;9.67;100.00;95400.44;5071753;28;20214;-54
2023/03/09 07:15:22;;;;;;;1.50;0.40;;;;;;;9.62;100.00;95396.66;5072132;28;20202;-54
2023/03/09 07:17:48;;;;;;;1.07;0.50;;;;;;;9.68;100.00;95399.47;5073041;28;20206;-55
2023/03/09 07:20:16;;;;;;;0.50;0.47;;;;;;;9.74;100.00;95419.91;5070071;28;20268;-55
2023/03/09 07:22:44;;;;;;;0.50;0.40;;;;;;;9.69;100.00;95408.22;5070411;28;20606;-55
2023/03/09 07:25:11;;;;;;;0.63;0.63;;;;;;;9.77;100.00;95443.34;5070646;28;20206;-55
2023/03/09 07:27:38;;;;;;;0.90;0.50;;;;;;;9.71;100.00;95454.56;5070187;28;20538;-54
2023/03/09 07:30:05;;;;;;;0.63;0.30;;;;;;;9.62;100.00;95452.09;5070487;28;20237;-54
2023/03/09 07:32:31;;;;;;;1.17;0.60;;;;;;;9.51;100.00;95469.09;5070227;28;20226;-55
2023/03/09 07:34:58;;;;;;;1.43;0.70;;;;;;;9.30;100.00;95434.47;5072333;28;20305;-55
2023/03/09 07:37:26;;;;;;;1.70;0.70;;;;;;;9.16;100.00;95429.84;5074303;28;20217;-55
2023/03/09 07:39:52;;;;;;;2.53;0.83;;;;;;;9.22;100.00;95423.91;5075216;28;20287;-55
2023/03/09 07:42:20;;;;;;;0.50;0.20;;;;;;;9.15;100.00;95438.72;5070693;28;20233;-58
2023/03/09 07:44:48;;;;;;;1.73;0.57;;;;;;;9.19;100.00;95434.78;5070857;28;20199;-57
2023/03/09 07:47:14;;;;;;;0.47;0.33;;;;;;;9.21;100.00;95443.38;5071688;28;20205;-56
2023/03/09 07:49:41;;;;;;;1.20;0.60;;;;;;;9.31;100.00;95459.84;5071462;28;20250;-57
2023/03/09 07:52:09;;;;;;;0.67;0.33;;;;;;;9.36;100.00;95468.09;5070465;28;20238;-56
2023/03/09 07:54:38;;;;;;;1.23;0.60;;;;;;;9.38;100.00;95468.75;5070843;28;20256;-57
2023/03/09 07:57:05;;;;;;;2.00;0.73;;;;;;;9.49;100.00;95473.72;5070746;28;20202;-57
2023/03/09 07:59:32;;;;;;;1.43;0.53;;;;;;;9.55;100.00;95478.31;5071199;28;20655;-57
2023/03/09 08:01:58;;;;;;;1.53;0.63;;;;;;;9.69;100.00;95476.84;5070229;28;20213;-56
2023/03/09 08:04:26;;;;;;;2.00;0.80;;;;;;;9.71;100.00;95467.75;5070539;28;20217;-56
2023/03/09 08:06:54;;;;;;;1.20;0.60;;;;;;;9.84;100.00;95470.72;5070863;28;20218;-55
2023/03/09 08:09:21;;;;;;;1.57;0.60;;;;;;;9.87;100.00;95459.84;5070516;28;20214;-56
2023/03/09 08:11:49;;;;;;;2.30;0.97;;;;;;;9.93;100.00;95469.72;5070642;28;20240;-57
2023/03/09 08:14:15;;;;;;;1.30;0.97;;;;;;;10.13;100.00;95462.22;5070904;28;20211;-56
2023/03/09 08:16:45;;;;;;;2.03;0.87;;;;;;;10.20;100.00;95471.16;5070798;28;20199;-56
2023/03/09 08:19:11;;;;;;;2.17;0.90;;;;;;;10.25;100.00;95479.41;5071094;28;20203;-56
2023/03/09 08:21:39;;;;;;;4.03;1.17;;;;;;;10.36;99.91;95488.78;5070756;28;20217;-55
2023/03/09 08:24:07;;;;;;;2.07;0.80;;;;;;;10.47;97.76;95489.25;5073862;28;20289;-55
2023/03/09 08:26:34;;;;;;;3.87;1.27;;;;;;;10.61;95.16;95485.09;5074072;28;20206;-56
2023/03/09 08:29:02;;;;;;;3.37;1.70;;;;;;;10.66;94.86;95495.16;5074136;28;20217;-57
2023/03/09 08:31:28;;;;;;;5.57;3.77;;;;;;;10.83;92.53;95496.72;5074001;28;20198;-56
2023/03/09 08:33:55;;;;;;;2.50;1.00;;;;;;;10.85;91.12;95492.91;5074100;28;20213;-56
2023/03/09 08:36:22;;;;;;;2.73;1.20;;;;;;;10.98;89.21;95501.09;5073825;28;20205;-57
2023/03/09 08:38:49;;;;;;;3.90;1.00;;;;;;;11.04;89.07;95494.31;5073570;28;20198;-56
2023/03/09 08:41:16;;;;;;;4.67;1.23;;;;;;;11.15;87.74;95501.03;5074016;28;20264;-56
2023/03/09 08:43:43;;;;;;;3.77;1.27;;;;;;;11.28;85.49;95509.19;5073871;28;20209;-56
2023/03/09 08:46:11;;;;;;;3.97;1.53;;;;;;;11.36;82.76;95509.16;5073842;28;20206;-56
2023/03/09 08:48:37;;;;;;;4.00;1.57;;;;;;;11.46;84.95;95513.22;5077505;28;20243;-57
2023/03/09 08:51:06;;;;;;;2.37;1.23;;;;;;;11.53;85.64;95499.28;5081160;28;20248;-57
2023/03/09 08:53:33;;;;;;;5.30;1.50;;;;;;;11.62;82.07;95499.03;5075249;28;20222;-57
2023/03/09 08:56:03;;;;;;;2.63;1.10;;;;;;;11.69;81.55;95515.84;5074284;28;20207;-57
2023/03/09 08:58:29;;;;;;;4.83;1.50;;;;;;;11.81;81.36;95497.75;5073210;28;20207;-55
2023/03/09 09:00:56;;;;;;;4.30;1.67;;;;;;;11.85;81.33;95502.53;5073475;28;20217;-56
2023/03/09 09:03:24;;;;;;;3.73;1.60;;;;;;;11.96;81.74;95504.75;5073434;28;20333;-56
2023/03/09 09:05:50;;;;;;;4.47;1.30;;;;;;;12.20;79.48;95505.53;5073002;28;20206;-55
2023/03/09 09:08:19;;;;;;;7.70;1.87;;;;;;;12.29;80.38;95515.06;5073428;28;20261;-56
2023/03/09 09:10:46;;;;;;;2.90;1.03;;;;;;;12.39;79.51;95516.44;5073815;28;20207;-55
2023/03/09 09:13:13;;;;;;;5.97;1.93;;;;;;;12.55;76.95;95528.69;5074500;28;20304;-55
2023/03/09 09:15:41;;;;;;;4.03;1.27;;;;;;;12.45;76.28;95522.81;5073755;28;20210;-55
2023/03/09 09:18:09;;;;;;;3.93;1.50;;;;;;;12.49;76.46;95540.03;5073985;28;20239;-55
2023/03/09 09:20:37;;;;;;;6.07;2.10;;;;;;;12.77;76.05;95549.00;5073539;28;20206;-55
2023/03/09 09:23:04;;;;;;;4.53;1.60;;;;;;;12.91;74.03;95550.81;5073022;28;20631;-55
2023/03/09 09:25:31;;;;;;;2.50;1.30;;;;;;;13.12;73.94;95542.13;5073679;28;20855;-54
2023/03/09 09:27:57;;;;;;;5.63;1.87;;;;;;;13.28;74.62;95543.78;5073893;28;20334;-55
2023/03/09 09:30:24;;;;;;;3.80;1.73;;;;;;;13.50;75.85;95550.75;5073185;28;20210;-55
2023/03/09 09:32:50;;;;;;;3.27;1.40;;;;;;;13.82;76.21;95555.59;5073198;28;20227;-55
2023/03/09 09:35:19;;;;;;;8.27;2.30;;;;;;;14.03;71.83;95553.97;5072618;28;20260;-55
2023/03/09 09:37:48;;;;;;;4.17;1.63;;;;;;;13.81;70.17;95548.66;5073530;28;20293;-56
2023/03/09 09:40:16;;;;;;;5.13;1.57;;;;;;;13.73;70.86;95564.72;5073516;28;20195;-54
2023/03/09 09:42:43;;;;;;;5.17;1.87;;;;;;;13.71;70.15;95548.13;5073094;28;20270;-56
2023/03/09 09:45:24;;;;;;;4.00;1.60;;;;;;;13.59;71.23;95543.50;5073507;28;20230;-54
2023/03/09 09:47:51;;;;;;;7.60;1.50;;;;;;;13.84;71.61;95548.28;5073268;28;20205;-53
2023/03/09 09:50:18;;;;;;;7.80;1.53;;;;;;;14.07;72.81;95531.28;5072553;28;20238;-55
2023/03/09 09:52:47;;;;;;;5.63;1.90;;;;;;;14.05;69.75;95549.28;5072395;28;20214;-55
2023/03/09 09:55:21;;;;;;;4.93;1.63;;;;;;;14.16;69.53;95535.47;5073273;28;20194;-55
2023/03/09 09:57:55;;;;;;;3.63;1.43;;;;;;;14.55;70.10;95522.50;5072905;28;20202;-55
2023/03/09 10:00:26;;;;;;;3.20;1.47;;;;;;;14.59;66.19;95537.06;5072484;28;20213;-55
2023/03/09 10:03:04;;;;;;;4.00;2.00;;;;;;;15.07;68.01;95515.81;5073280;28;20562;-55
2023/03/09 10:05:37;;;;;;;4.10;1.60;;;;;;;15.63;65.90;95519.09;5072478;28;20260;-56
2023/03/09 10:08:18;;;;;;;5.28;1.50;;;;;;;15.76;62.97;95506.66;5073191;28;20206;-54
2023/03/09 10:10:46;;;;;;;5.28;1.58;;;;;;;16.36;62.36;95507.50;5072512;28;20202;-56
2023/03/09 10:13:16;;;;;;;5.05;2.15;;;;;;;16.39;60.29;95515.91;5072535;28;20222;-54
2023/03/09 10:15:43;;;;;;;5.47;1.52;;;;;;;15.87;61.66;95511.38;5072373;28;20577;-55
2023/03/09 10:18:14;;;;;;;3.63;1.85;;;;;;;15.57;61.55;95512.75;5072121;28;20217;-55
2023/03/09 10:20:43;;;;;;;2.83;1.40;;;;;;;15.91;61.92;95501.94;5071255;28;20202;-52
2023/03/09 10:23:19;;;;;;;4.57;1.30;;;;;;;16.24;63.58;95499.28;5072553;28;20214;-56
2023/03/09 10:25:45;;;;;;;3.03;1.85;;;;;;;16.10;62.52;95511.00;5073239;28;20205;-55
2023/03/09 10:28:17;;;;;;;3.17;1.48;;;;;;;16.36;59.04;95497.66;5074338;28;20210;-54
2023/03/09 10:30:47;;;;;;;4.60;1.70;;;;;;;16.55;57.33;95532.50;5071533;28;20199;-54
2023/03/09 10:33:17;;;;;;;4.88;1.77;;;;;;;16.42;58.99;95517.34;5071694;28;20268;-55
2023/03/09 10:35:46;;;;;;;3.17;1.50;;;;;;;16.64;58.14;95516.13;5071103;28;20211;-55
2023/03/09 10:38:15;;;;;;;5.47;1.73;;;;;;;16.40;58.44;95503.41;5071938;28;20294;-55
2023/03/09 10:40:43;;;;;;;6.53;2.10;;;;;;;16.29;57.54;95496.03;5071177;28;20198;-56
2023/03/09 10:43:14;;;;;;;3.95;1.55;;;;;;;16.29;59.53;95504.03;5072096;28;20245;-54
2023/03/09 10:45:41;;;;;;;3.45;1.63;;;;;;;16.41;59.06;95499.69;5071620;28;20210;-55
2023/03/09 10:48:07;;;;;;;5.13;1.80;;;;;;;16.47;57.59;95504.22;5071675;28;20221;-55
2023/03/09 10:50:35;;;;;;;3.90;1.70;;;;;;;16.14;59.05;95506.06;5071385;28;20760;-56
2023/03/09 10:53:26;;;;;;;5.55;1.77;;;;;;;15.68;59.42;95506.00;5070568;28;20860;-61
2023/03/09 10:55:54;;;;;;;4.13;1.70;;;;;;;15.81;59.88;95514.84;5071770;28;20630;-55
2023/03/09 10:58:22;;;;;;;3.20;1.30;;;;;;;16.16;57.31;95501.34;5071491;28;20214;-55
2023/03/09 11:00:51;;;;;;;3.20;1.70;;;;;;;16.06;56.96;95508.91;5071319;28;20217;-55
2023/03/09 11:03:21;;;;;;;4.25;1.40;;;;;;;16.00;57.54;95505.25;5071177;28;20199;-55
2023/03/09 11:05:47;;;;;;;4.50;1.77;;;;;;;15.96;57.24;95519.19;5070817;28;20202;-56
2023/03/09 11:08:24;;;;;;;3.63;1.42;;;;;;;16.03;56.63;95502.16;5071547;28;20206;-55
2023/03/09 11:11:01;;;;;;;4.25;1.23;;;;;;;15.99;55.28;95502.75;5070882;28;20195;-55
2023/03/09 11:13:28;;;;;;;4.25;1.60;;;;;;;16.26;55.71;95504.44;5071092;28;20218;-55
2023/03/09 11:16:06;;;;;;;3.90;1.67;;;;;;;15.95;56.40;95507.69;5074000;28;20293;-55
2023/03/09 11:18:32;;;;;;;4.38;1.85;;;;;;;16.35;55.43;95503.19;5096149;28;20252;-56
2023/03/09 11:20:59;;;;;;;3.92;1.35;;;;;;;17.12;53.36;95489.06;5090633;28;20186;-55
2023/03/09 11:23:30;;;;;;;5.25;1.80;;;;;;;17.88;51.01;95495.31;5087408;28;20228;-56
2023/03/09 11:26:09;;;;;;;2.47;1.30;;;;;;;18.28;48.24;95477.09;5072243;28;20203;-56
2023/03/09 11:28:44;;;;;;;3.03;1.30;;;;;;;19.00;49.96;95468.34;5071283;28;20202;-55
2023/03/09 11:31:14;;;;;;;2.92;1.20;;;;;;;19.98;47.26;95473.50;5071322;28;20289;-56
2023/03/09 11:33:40;;;;;;;3.20;1.38;;;;;;;19.37;46.07;95480.69;5070964;28;20238;-55